Time;durP1;ratioP1;P1;durP2;ratioP2;P2;SDS_P1;SDS_P2;PMS_P1;PMS_P2;Temp;Humidity;BMP_temperature;BMP_pressure;BME280_temperature;BME280_humidity;BME280_pressure;Samples;Min_cycle;Max_cycle;Signal;HPM_P1;HPM_P2
2023/07/23 00:09:17;;;;;;;31.93;22.47;;;27.20;29.50;;;;;;20917084;28;20049;-58
2023/07/23 00:19:21;;;;;;;28.97;21.57;;;27.10;29.40;;;;;;20916237;28;20052;-59
2023/07/23 00:29:21;;;;;;;29.83;19.58;;;27.00;30.00;;;;;;20914076;28;20057;-58
2023/07/23 00:39:22;;;;;;;31.73;20.87;;;26.80;30.20;;;;;;20914538;28;20525;-58
2023/07/23 00:49:23;;;;;;;31.93;21.40;;;26.80;30.40;;;;;;20914040;28;20037;-57
2023/07/23 00:59:24;;;;;;;36.60;22.63;;;26.60;30.70;;;;;;20913456;28;20103;-59
2023/07/23 01:09:25;;;;;;;28.70;21.67;;;26.50;30.60;;;;;;20913377;28;20072;-57
2023/07/23 01:19:26;;;;;;;29.77;20.83;;;26.20;31.40;;;;;;20912612;28;20149;-57
2023/07/23 01:29:27;;;;;;;28.77;21.08;;;26.00;31.90;;;;;;20910513;28;20068;-57
2023/07/23 01:39:27;;;;;;;32.00;22.37;;;25.90;32.00;;;;;;20910707;28;20057;-58
2023/07/23 01:49:28;;;;;;;31.80;21.80;;;25.90;32.00;;;;;;20910241;28;20051;-58
2023/07/23 01:59:29;;;;;;;38.50;27.23;;;25.80;32.40;;;;;;20910809;28;20496;-58
2023/07/23 02:09:30;;;;;;;37.93;27.20;;;25.90;30.50;;;;;;20911537;28;20402;-58
2023/07/23 02:19:30;;;;;;;39.97;25.93;;;26.00;30.90;;;;;;20924164;28;20151;-58
2023/07/23 02:29:31;;;;;;;33.90;21.70;;;26.00;30.60;;;;;;20922344;28;20049;-58
2023/07/23 02:39:32;;;;;;;38.50;25.67;;;25.50;33.70;;;;;;20922895;28;20053;-58
2023/07/23 02:49:34;;;;;;;38.05;26.45;;;25.10;33.40;;;;;;20920963;28;20078;-57
2023/07/23 02:59:34;;;;;;;38.23;26.30;;;24.70;33.10;;;;;;20921682;28;20452;-59
2023/07/23 03:09:35;;;;;;;39.33;26.63;;;24.40;33.80;;;;;;20920725;28;20449;-57
2023/07/23 03:19:36;;;;;;;35.80;26.13;;;24.20;33.80;;;;;;20920184;28;20062;-58
2023/07/23 03:29:37;;;;;;;41.90;26.67;;;24.10;34.20;;;;;;20917322;28;20082;-59
2023/07/23 03:39:38;;;;;;;44.22;28.30;;;24.00;34.30;;;;;;20917597;28;20049;-58
2023/07/23 03:49:38;;;;;;;39.42;27.55;;;23.90;34.00;;;;;;20918069;28;20121;-58
2023/07/23 03:59:41;;;;;;;41.30;29.20;;;23.80;33.90;;;;;;20916074;28;20116;-58
2023/07/23 04:09:42;;;;;;;43.47;30.02;;;23.70;34.20;;;;;;20915059;28;20041;-60
2023/07/23 04:19:43;;;;;;;46.20;32.25;;;23.50;34.00;;;;;;20915578;28;20055;-59
2023/07/23 04:29:43;;;;;;;51.90;36.13;;;23.30;34.30;;;;;;20913612;28;20477;-58
2023/07/23 04:39:44;;;;;;;54.92;35.22;;;23.10;34.20;;;;;;20913998;28;20144;-58
2023/07/23 04:49:45;;;;;;;48.35;32.85;;;22.90;34.00;;;;;;20913793;28;20069;-58
2023/07/23 04:59:45;;;;;;;52.53;34.05;;;22.70;34.40;;;;;;20913166;28;20081;-59
2023/07/23 05:09:46;;;;;;;52.35;33.78;;;22.60;33.80;;;;;;20912702;28;20092;-57
2023/07/23 05:19:49;;;;;;;50.55;34.13;;;22.60;34.10;;;;;;20910884;28;20128;-59
2023/07/23 05:29:49;;;;;;;51.15;33.63;;;22.50;34.10;;;;;;20910010;28;20057;-58
2023/07/23 05:39:54;;;;;;;52.75;35.42;;;22.50;34.20;;;;;;20910061;28;20091;-58
2023/07/23 05:49:54;;;;;;;51.60;34.85;;;22.50;33.50;;;;;;20921754;28;20049;-59
2023/07/23 05:59:55;;;;;;;54.42;35.15;;;22.40;33.20;;;;;;20926135;28;20045;-57
2023/07/23 06:09:56;;;;;;;52.65;34.65;;;22.60;33.60;;;;;;20925601;28;20285;-58
2023/07/23 06:19:57;;;;;;;56.03;35.53;;;22.70;33.60;;;;;;20923028;28;20080;-57
2023/07/23 06:29:58;;;;;;;49.17;33.63;;;22.60;34.20;;;;;;20924100;28;20110;-58
2023/07/23 06:39:58;;;;;;;49.53;33.15;;;22.70;34.50;;;;;;20921894;28;20048;-57
2023/07/23 06:49:59;;;;;;;49.45;33.92;;;22.80;34.70;;;;;;20922291;28;20084;-57
2023/07/23 07:00:00;;;;;;;52.40;34.30;;;23.10;34.90;;;;;;20922396;28;20084;-58
2023/07/23 07:10:05;;;;;;;50.17;34.08;;;23.90;34.50;;;;;;20920915;28;20102;-57
2023/07/23 07:20:06;;;;;;;42.17;29.40;;;24.70;33.60;;;;;;20920933;28;20051;-58
2023/07/23 07:30:07;;;;;;;44.17;29.40;;;25.50;34.40;;;;;;20920390;28;20055;-58
2023/07/23 07:40:10;;;;;;;39.53;27.07;;;26.20;35.40;;;;;;20919359;28;20045;-58
2023/07/23 07:50:11;;;;;;;29.42;18.63;;;26.70;36.60;;;;;;20918611;28;20052;-58
2023/07/23 08:00:12;;;;;;;22.90;14.77;;;27.40;43.70;;;;;;20917630;28;20041;-58
2023/07/23 08:10:13;;;;;;;18.17;11.60;;;27.70;46.10;;;;;;20916326;28;20076;-58
2023/07/23 08:20:14;;;;;;;21.70;13.85;;;28.10;46.40;;;;;;20915837;28;20092;-58
2023/07/23 08:30:16;;;;;;;25.05;13.18;;;28.30;45.30;;;;;;20915267;28;20382;-58
2023/07/23 08:40:18;;;;;;;21.88;12.80;;;28.50;45.30;;;;;;20913793;28;20577;-58
2023/07/23 08:50:19;;;;;;;24.13;14.50;;;28.80;44.50;;;;;;20913061;28;20406;-58
2023/07/23 09:00:22;;;;;;;28.58;16.48;;;28.80;42.50;;;;;;20911015;28;20041;-58
2023/07/23 09:10:22;;;;;;;24.80;16.05;;;29.10;41.30;;;;;;20912595;28;20049;-58
2023/07/23 09:20:23;;;;;;;24.80;16.75;;;29.30;40.10;;;;;;20914977;28;20115;-58
2023/07/23 09:30:25;;;;;;;29.38;17.38;;;29.60;38.20;;;;;;20929015;28;20045;-58
2023/07/23 09:40:36;;;;;;;26.15;17.15;;;29.80;37.00;;;;;;20927834;28;20057;-59
2023/07/23 09:50:37;;;;;;;25.52;18.42;;;30.00;35.90;;;;;;20928040;28;20049;-59
2023/07/23 10:00:39;;;;;;;28.50;17.08;;;30.60;32.10;;;;;;20924893;28;20437;-58
2023/07/23 10:10:39;;;;;;;23.23;16.52;;;30.80;33.00;;;;;;20925017;28;20120;-59
2023/07/23 10:20:43;;;;;;;23.30;16.35;;;30.90;33.20;;;;;;20918158;28;20092;-59
2023/07/23 10:30:44;;;;;;;22.95;16.30;;;31.20;32.00;;;;;;20922214;28;20107;-59
2023/07/23 10:40:46;;;;;;;24.00;16.55;;;31.40;32.00;;;;;;20923162;28;20127;-58
2023/07/23 10:51:01;;;;;;;28.08;20.13;;;31.60;31.70;;;;;;20921737;28;20103;-57
2023/07/23 11:01:02;;;;;;;26.33;18.92;;;32.00;27.80;;;;;;20919853;28;20072;-59
2023/07/23 11:11:07;;;;;;;25.98;19.00;;;32.10;26.00;;;;;;20919881;28;20103;-58
2023/07/23 11:21:14;;;;;;;26.25;20.55;;;32.30;25.00;;;;;;20919863;28;20059;-59
2023/07/23 11:31:14;;;;;;;28.88;22.80;;;32.40;24.20;;;;;;20918520;28;20045;-59
2023/07/23 11:41:15;;;;;;;28.63;22.75;;;32.60;22.70;;;;;;20917001;28;20052;-58
2023/07/23 11:51:16;;;;;;;29.27;23.30;;;32.60;23.40;;;;;;20917108;28;20505;-59
2023/07/23 12:01:17;;;;;;;28.55;23.05;;;32.80;22.30;;;;;;20917652;28;20491;-58
2023/07/23 12:11:18;;;;;;;30.00;22.95;;;33.10;21.20;;;;;;20917023;28;20545;-59
2023/07/23 12:21:21;;;;;;;28.17;21.00;;;33.10;21.90;;;;;;20916122;28;20103;-59
2023/07/23 12:31:22;;;;;;;26.17;21.45;;;33.30;20.40;;;;;;20915528;28;20045;-58
2023/07/23 12:41:23;;;;;;;24.70;20.38;;;33.60;19.20;;;;;;20914816;28;20132;-59
2023/07/23 12:51:24;;;;;;;25.77;21.75;;;33.70;20.00;;;;;;20914265;28;20083;-59
2023/07/23 13:01:25;;;;;;;29.08;22.27;;;33.70;18.30;;;;;;20912065;28;20128;-61
2023/07/23 13:11:26;;;;;;;25.52;19.60;;;33.90;18.40;;;;;;20912640;28;20182;-59
2023/07/23 13:21:26;;;;;;;26.23;21.33;;;33.90;17.50;;;;;;20912129;28;20053;-60
2023/07/23 13:31:27;;;;;;;27.75;22.00;;;34.20;17.40;;;;;;20910497;28;20183;-59
2023/07/23 13:41:28;;;;;;;28.98;23.13;;;34.30;17.50;;;;;;20906221;28;20110;-58
2023/07/23 13:51:28;;;;;;;30.73;23.45;;;34.20;17.20;;;;;;20903478;28;20405;-59
2023/07/23 14:01:29;;;;;;;27.95;21.80;;;34.40;17.50;;;;;;20911336;28;20037;-58
2023/07/23 14:11:30;;;;;;;28.38;23.45;;;34.30;18.00;;;;;;20922327;28;20041;-59
2023/07/23 14:21:31;;;;;;;25.63;21.45;;;34.60;17.80;;;;;;20924410;28;20053;-58
2023/07/23 14:31:31;;;;;;;26.88;21.27;;;34.50;17.60;;;;;;20924956;28;20553;-59
2023/07/23 14:41:32;;;;;;;29.73;25.58;;;34.80;17.50;;;;;;20924224;28;20471;-58
2023/07/23 14:51:33;;;;;;;28.67;23.35;;;35.00;17.90;;;;;;20922086;28;20041;-59
2023/07/23 15:01:34;;;;;;;28.77;22.30;;;34.90;17.30;;;;;;20919705;28;20044;-57
2023/07/23 15:11:35;;;;;;;28.42;23.27;;;34.90;17.80;;;;;;20919361;28;20435;-59
2023/07/23 15:21:36;;;;;;;28.48;22.13;;;35.10;17.20;;;;;;20918068;28;20057;-58
2023/07/23 15:31:36;;;;;;;27.05;22.67;;;35.10;17.20;;;;;;20916443;28;20048;-59
2023/07/23 15:41:37;;;;;;;27.38;21.65;;;35.00;17.10;;;;;;20917909;28;20479;-59
2023/07/23 15:51:38;;;;;;;26.67;21.95;;;35.10;17.20;;;;;;20910144;28;20555;-59
2023/07/23 16:01:39;;;;;;;25.80;21.73;;;35.10;17.30;;;;;;20913520;28;20099;-59
2023/07/23 16:11:39;;;;;;;27.70;21.90;;;35.10;16.80;;;;;;20917560;28;20045;-60
2023/07/23 16:21:40;;;;;;;25.02;20.83;;;35.10;16.90;;;;;;20915902;28;20137;-58
2023/07/23 16:31:41;;;;;;;22.85;20.23;;;35.10;16.90;;;;;;20913970;28;20044;-59
2023/07/23 16:41:43;;;;;;;21.98;17.77;;;35.10;16.60;;;;;;20915017;28;20044;-61
2023/07/23 16:51:44;;;;;;;22.88;19.90;;;35.10;16.80;;;;;;20914165;28;20044;-61
2023/07/23 17:01:45;;;;;;;25.23;20.33;;;35.10;16.90;;;;;;20913548;28;20115;-60
2023/07/23 17:11:46;;;;;;;23.67;19.77;;;35.00;16.90;;;;;;20913267;28;20094;-60
2023/07/23 17:21:48;;;;;;;26.98;21.73;;;34.90;17.50;;;;;;20912118;28;20408;-59
2023/07/23 17:31:48;;;;;;;27.02;20.95;;;34.80;17.40;;;;;;20912749;28;20037;-61
2023/07/23 17:41:49;;;;;;;27.40;22.25;;;34.60;17.40;;;;;;20915328;28;20311;-58
2023/07/23 17:51:50;;;;;;;23.88;20.05;;;34.40;17.80;;;;;;20928231;28;20466;-60
2023/07/23 18:01:51;;;;;;;23.83;19.63;;;34.30;17.90;;;;;;20927589;28;20091;-58
2023/07/23 18:11:51;;;;;;;24.85;21.27;;;34.10;18.00;;;;;;20926009;28;20719;-61
2023/07/23 18:21:53;;;;;;;25.95;20.20;;;33.90;18.30;;;;;;20924721;28;20414;-59
2023/07/23 18:31:54;;;;;;;22.30;18.67;;;33.90;18.70;;;;;;20924995;28;20047;-59
2023/07/23 18:41:55;;;;;;;24.55;19.75;;;33.60;18.80;;;;;;20922666;28;20049;-58
2023/07/23 18:51:55;;;;;;;21.38;17.15;;;33.50;19.30;;;;;;20923146;28;20069;-59
2023/07/23 19:01:56;;;;;;;26.48;17.98;;;33.30;19.70;;;;;;20922848;28;20041;-59
2023/07/23 19:11:57;;;;;;;22.35;16.48;;;33.10;20.30;;;;;;20922330;28;20041;-59
2023/07/23 19:21:58;;;;;;;20.35;15.25;;;32.90;20.60;;;;;;20919860;28;20056;-59
2023/07/23 19:31:58;;;;;;;16.65;14.70;;;32.60;20.70;;;;;;20920062;28;20053;-58
2023/07/23 19:41:59;;;;;;;18.33;14.35;;;32.40;21.20;;;;;;20919715;28;20045;-59
2023/07/23 19:52:00;;;;;;;16.67;13.07;;;32.20;21.50;;;;;;20917245;28;20052;-59
2023/07/23 20:02:01;;;;;;;16.35;12.20;;;32.00;21.90;;;;;;20916272;28;20127;-60
2023/07/23 20:12:02;;;;;;;16.02;12.23;;;31.90;22.10;;;;;;20917340;28;20052;-60
2023/07/23 20:22:02;;;;;;;14.85;12.57;;;31.60;22.50;;;;;;20915265;28;20063;-60
2023/07/23 20:32:04;;;;;;;14.65;11.85;;;31.40;22.70;;;;;;20916235;28;20557;-59
2023/07/23 20:42:05;;;;;;;13.73;11.07;;;31.30;22.80;;;;;;20915075;28;20049;-58
2023/07/23 20:52:06;;;;;;;14.13;11.27;;;31.10;23.30;;;;;;20914639;28;20406;-59
2023/07/23 21:02:06;;;;;;;14.10;11.32;;;31.00;23.40;;;;;;20914222;28;20041;-60
2023/07/23 21:12:07;;;;;;;12.40;10.43;;;30.80;23.30;;;;;;20913681;28;20201;-61
2023/07/23 21:22:08;;;;;;;11.10;9.75;;;30.70;23.60;;;;;;20912970;28;20060;-59
2023/07/23 21:32:09;;;;;;;12.18;9.82;;;30.60;23.50;;;;;;20912883;28;20057;-61
2023/07/23 21:42:09;;;;;;;12.85;11.02;;;30.50;23.70;;;;;;20911488;28;20045;-61
2023/07/23 21:52:10;;;;;;;11.40;10.18;;;30.60;23.80;;;;;;20912601;28;20520;-61
2023/07/23 22:02:11;;;;;;;12.20;10.02;;;30.30;23.90;;;;;;20911425;28;20437;-60
2023/07/23 22:12:11;;;;;;;13.13;10.00;;;30.30;23.80;;;;;;20911132;28;20048;-60
2023/07/23 22:22:12;;;;;;;10.43;8.48;;;30.20;23.70;;;;;;20908767;28;20111;-61
2023/07/23 22:32:13;;;;;;;12.43;9.23;;;29.90;23.60;;;;;;20918889;28;20048;-59
2023/07/23 22:42:14;;;;;;;10.95;8.48;;;29.90;23.90;;;;;;20924244;28;20510;-59
2023/07/23 22:52:15;;;;;;;10.43;8.68;;;29.90;23.80;;;;;;20923748;28;20048;-59
2023/07/23 23:02:15;;;;;;;11.95;8.23;;;29.70;23.90;;;;;;20922922;28;20040;-59
2023/07/23 23:12:16;;;;;;;10.50;7.15;;;29.60;24.00;;;;;;20922012;28;20048;-59
2023/07/23 23:22:17;;;;;;;13.75;7.93;;;29.30;24.10;;;;;;20920494;28;20057;-59
2023/07/23 23:32:17;;;;;;;11.70;7.40;;;29.30;24.20;;;;;;20920342;28;20064;-58
2023/07/23 23:42:18;;;;;;;12.77;7.95;;;29.10;24.00;;;;;;20917590;28;20094;-59
2023/07/23 23:52:19;;;;;;;9.43;7.07;;;29.00;24.30;;;;;;20918027;28;20041;-59
